Aérodrome :
LOGIN :

S'inscrire | Disclaimer

   EN    FR    IT 

 










Légende :    VFR   VFR Marginal   IFR   IFR Intensif   IFR Très Intensif
Visi : 
Plafond : 
>= 8 km
>= 3000ft
5 à 8 km
1000 à 3000 ft
1500m à 5 km
500 à 1000 ft
800 à 1500m
200 à 500 ft
< 800m
< 200 ft
Symboles :   Orages  Brouillard  Fortes neiges  Fortes précipitations  Vent > 20 kt
SIGMETs :   Divers  Orages  Givrage  Turbulence  Onde Orograph.  Cendres Volcan.







- Altitude de l'aérodrome : 1339 ft


ETHN - Niederstetten

DERNIER METAR :
  • 211920Z 34015KT 9999 FEW045 15/02 Q1019 BLU+

METARs EXPIRÉS :
  • 211820Z 33017KT 9999 FEW045 18/02 Q1018 BLU+
  • 211720Z 33019KT 9999 FEW045 19/05 Q1018 BLU+
  • 211620Z 32017G27KT 9999 FEW045 SCT240 21/09 Q1017 BLU+

TAF AMD TAF ETHN
Valide du 21 à 14h jusqu'au 21 à 23h UTC


211435Z 2114/2123 31015G25KT 9999 NSW SCT035
TEMPO 2114/2118 32020G33KT 9999 NSW BKN030 CANCEL 1500
Pas de NOTAMs connus pour ce terrain.



MET'MAP, la Météo Aéronautique d'un coup d'oeil ! - Copyright ORBIFLY Décembre 2007 - Disclaimer

ORBIFLY MET'MAP TEAM :

Programmation & Développement : Alexandra Zaïnal
Conception & Développement : Baudouin d'Aumeries
Co-Programmation & Développement : Marc-Olivier Méhu
Soutien technique & logistique : Manuel Goepfert

Contact : metmap@orbifly.com




SOURCES & CREDITS :

   NOAA